createdAt,value
2022-07-28T00:02:31.584Z,100727.31
2022-07-28T00:05:01.003Z,100723.14
2022-07-28T00:07:30.070Z,100726.11
2022-07-28T00:10:00.789Z,100724.54
2022-07-28T00:12:32.509Z,100727.92
2022-07-28T00:15:02.446Z,100729.77
2022-07-28T00:17:33.934Z,100727.71
2022-07-28T00:20:06.918Z,100726.15
2022-07-28T00:22:41.885Z,100728.84
2022-07-28T00:25:13.592Z,100729.48
2022-07-28T00:27:47.277Z,100730.13
2022-07-28T00:30:19.826Z,100729.00
2022-07-28T00:32:50.450Z,100729.23
2022-07-28T00:35:29.074Z,100728.26
2022-07-28T00:38:01.309Z,100730.42
2022-07-28T00:40:49.116Z,100726.98
2022-07-28T00:43:18.692Z,100724.37
2022-07-28T00:45:47.680Z,100724.33
2022-07-28T00:48:17.018Z,100722.00
2022-07-28T00:50:46.174Z,100723.05
2022-07-28T00:53:15.368Z,100718.98
2022-07-28T00:56:03.054Z,100719.58
2022-07-28T00:58:35.495Z,100723.41
2022-07-28T01:01:07.702Z,100720.38
2022-07-28T01:03:43.457Z,100721.89
2022-07-28T01:06:40.332Z,100721.04
2022-07-28T01:09:38.850Z,100719.72
2022-07-28T01:12:26.139Z,100717.99
2022-07-28T01:15:29.126Z,100716.92
2022-07-28T01:18:17.202Z,100718.52
2022-07-28T01:20:54.678Z,100716.09
2022-07-28T01:23:32.678Z,100717.65
2022-07-28T01:26:26.408Z,100718.98
2022-07-28T01:29:39.074Z,100719.69
2022-07-28T01:32:21.175Z,100720.63
2022-07-28T01:35:00.384Z,100719.21
2022-07-28T01:37:38.796Z,100716.84
2022-07-28T01:40:11.177Z,100716.77
2022-07-28T01:42:46.913Z,100718.08
2022-07-28T01:45:18.709Z,100720.12
2022-07-28T01:47:50.235Z,100725.59
2022-07-28T01:50:25.386Z,100726.09
2022-07-28T01:52:57.138Z,100728.13
2022-07-28T01:55:29.472Z,100731.11
2022-07-28T01:58:01.715Z,100730.49
2022-07-28T02:00:33.246Z,100728.86
2022-07-28T02:03:06.206Z,100728.04
2022-07-28T02:05:37.845Z,100730.69
2022-07-28T02:08:09.102Z,100729.02
2022-07-28T02:10:42.339Z,100726.19
2022-07-28T02:13:12.328Z,100726.02
2022-07-28T02:15:42.221Z,100726.97
2022-07-28T02:18:12.746Z,100725.67
2022-07-28T02:20:42.974Z,100728.40
2022-07-28T02:23:14.887Z,100733.55
2022-07-28T02:25:44.576Z,100731.91
2022-07-28T02:28:15.111Z,100734.56
2022-07-28T02:31:00.426Z,100733.30
2022-07-28T02:33:58.679Z,100735.73
2022-07-28T02:36:27.780Z,100739.54
2022-07-28T02:39:07.449Z,100739.75
2022-07-28T02:41:43.219Z,100742.89
2022-07-28T02:44:17.883Z,100743.38
2022-07-28T02:46:53.095Z,100749.52
2022-07-28T02:49:31.382Z,100744.56
2022-07-28T02:52:03.495Z,100743.75
2022-07-28T02:54:34.696Z,100744.55
2022-07-28T02:57:05.780Z,100745.98
2022-07-28T02:59:36.469Z,100750.24
2022-07-28T03:02:07.302Z,100755.13
2022-07-28T03:04:55.828Z,100758.05
2022-07-28T03:07:30.188Z,100758.58
2022-07-28T03:10:00.643Z,100761.24
2022-07-28T03:12:30.109Z,100766.08
2022-07-28T03:14:59.113Z,100769.63
2022-07-28T03:17:28.027Z,100770.31
2022-07-28T03:19:57.200Z,100774.21
2022-07-28T03:22:28.619Z,100774.34
2022-07-28T03:25:00.590Z,100774.75
2022-07-28T03:27:34.861Z,100780.77
2022-07-28T03:30:29.571Z,100782.75
2022-07-28T03:33:02.497Z,100783.34
2022-07-28T03:35:35.869Z,100787.16
2022-07-28T03:38:19.102Z,100786.27
2022-07-28T03:40:52.710Z,100788.11
2022-07-28T03:43:25.830Z,100790.36
2022-07-28T03:45:55.466Z,100791.35
2022-07-28T03:48:31.931Z,100794.60
2022-07-28T03:51:01.267Z,100798.77
2022-07-28T03:53:37.658Z,100799.73
2022-07-28T03:56:07.281Z,100798.10
2022-07-28T03:58:36.569Z,100803.66
2022-07-28T04:01:05.972Z,100803.60
2022-07-28T04:03:43.050Z,100802.77
2022-07-28T04:06:15.621Z,100808.60
2022-07-28T04:08:45.243Z,100808.36
2022-07-28T04:11:14.429Z,100807.73
2022-07-28T04:13:43.678Z,100807.64
2022-07-28T04:16:13.040Z,100807.70
2022-07-28T04:18:42.390Z,100810.41
2022-07-28T04:21:11.835Z,100812.67
2022-07-28T04:23:42.851Z,100812.16
2022-07-28T04:26:20.865Z,100814.89
2022-07-28T04:28:50.110Z,100813.67
2022-07-28T04:31:24.380Z,100812.88
2022-07-28T04:33:53.814Z,100813.69
2022-07-28T04:36:26.466Z,100816.13
2022-07-28T04:39:11.752Z,100823.23
2022-07-28T04:41:46.709Z,100824.80
2022-07-28T04:44:17.800Z,100821.98
2022-07-28T04:46:47.431Z,100823.83
2022-07-28T04:49:16.819Z,100826.10
2022-07-28T04:51:53.656Z,100834.04
2022-07-28T04:54:30.235Z,100836.15
2022-07-28T04:57:08.227Z,100836.05
2022-07-28T04:59:47.073Z,100834.09
2022-07-28T05:02:17.467Z,100828.10
2022-07-28T05:04:46.475Z,100824.95
2022-07-28T05:07:15.542Z,100822.45
2022-07-28T05:09:44.806Z,100823.16
2022-07-28T05:12:13.721Z,100825.65
2022-07-28T05:14:44.705Z,100822.16
2022-07-28T05:17:13.676Z,100823.70
2022-07-28T05:19:46.681Z,100824.71
2022-07-28T05:22:15.803Z,100830.62
2022-07-28T05:24:48.331Z,100828.19
2022-07-28T05:27:17.325Z,100829.70
2022-07-28T05:29:48.091Z,100829.84
2022-07-28T05:32:18.164Z,100834.60
2022-07-28T05:34:47.364Z,100835.28
2022-07-28T05:37:17.214Z,100834.65
2022-07-28T05:39:46.011Z,100831.52
2022-07-28T05:45:52.167Z,100831.27
2022-07-28T05:48:22.729Z,100836.23
2022-07-28T05:50:51.857Z,100835.72
2022-07-28T05:53:21.468Z,100835.52
2022-07-28T05:56:00.236Z,100837.11
2022-07-28T05:58:31.368Z,100841.36
2022-07-28T06:01:02.847Z,100841.14
2022-07-28T06:03:41.550Z,100846.11
2022-07-28T06:06:16.200Z,100846.42
2022-07-28T06:08:47.787Z,100847.46
2022-07-28T06:11:21.624Z,100853.79
2022-07-28T06:13:53.499Z,100849.63
2022-07-28T06:16:23.554Z,100856.59
2022-07-28T06:18:55.497Z,100857.97
2022-07-28T06:21:28.347Z,100856.98
2022-07-28T06:24:02.348Z,100854.95
2022-07-28T06:26:31.430Z,100851.88
2022-07-28T06:29:00.650Z,100855.91
2022-07-28T06:31:29.585Z,100860.70
2022-07-28T06:33:58.517Z,100860.36
2022-07-28T06:36:27.416Z,100859.05
2022-07-28T06:38:56.340Z,100857.92
2022-07-28T06:41:25.214Z,100858.69
2022-07-28T06:43:54.223Z,100859.78
2022-07-28T06:46:23.166Z,100858.20
2022-07-28T06:48:52.195Z,100861.52
2022-07-28T06:51:23.347Z,100865.86
2022-07-28T06:53:52.461Z,100866.88
2022-07-28T06:56:22.850Z,100870.23
2022-07-28T06:58:52.483Z,100868.98
2022-07-28T07:01:21.504Z,100870.20
2022-07-28T07:03:50.440Z,100873.18
2022-07-28T07:06:19.467Z,100866.09
2022-07-28T07:08:48.758Z,100866.41
2022-07-28T07:11:17.696Z,100866.63
2022-07-28T07:13:46.638Z,100867.86
2022-07-28T07:16:15.684Z,100867.44
2022-07-28T07:18:45.096Z,100863.27
2022-07-28T07:21:14.611Z,100863.86
2022-07-28T07:23:43.669Z,100868.42
2022-07-28T07:26:16.262Z,100865.38
2022-07-28T07:28:45.248Z,100867.49
2022-07-28T07:31:14.649Z,100869.35
2022-07-28T07:33:43.832Z,100870.55
2022-07-28T07:36:14.896Z,100871.26
2022-07-28T07:38:46.495Z,100869.23
2022-07-28T07:41:19.041Z,100866.42
2022-07-28T07:43:49.239Z,100871.13
2022-07-28T07:46:18.524Z,100870.22
2022-07-28T07:48:47.577Z,100867.34
2022-07-28T07:51:16.655Z,100871.57
2022-07-28T07:53:46.000Z,100871.34
2022-07-28T07:56:22.826Z,100875.46
2022-07-28T07:58:57.022Z,100874.34
2022-07-28T08:01:26.201Z,100876.60
2022-07-28T08:03:55.351Z,100872.64
2022-07-28T08:06:26.612Z,100875.42
2022-07-28T08:08:58.466Z,100880.40
2022-07-28T08:11:30.751Z,100881.09
2022-07-28T08:14:00.120Z,100876.73
2022-07-28T08:16:30.563Z,100873.92
2022-07-28T08:19:02.010Z,100872.52
2022-07-28T08:21:33.380Z,100873.63
2022-07-28T08:24:04.005Z,100877.45
2022-07-28T08:26:35.342Z,100881.08
2022-07-28T08:29:04.444Z,100877.73
2022-07-28T08:31:35.424Z,100881.23
2022-07-28T08:34:05.174Z,100881.03
2022-07-28T08:36:57.776Z,100880.33
2022-07-28T08:39:27.868Z,100879.60
2022-07-28T08:42:07.121Z,100875.97
2022-07-28T08:44:55.529Z,100874.98
2022-07-28T08:47:35.619Z,100874.40
2022-07-28T08:50:13.912Z,100872.77
2022-07-28T08:52:46.753Z,100869.27
2022-07-28T08:55:19.754Z,100871.52
2022-07-28T08:57:50.295Z,100874.73
2022-07-28T09:00:23.550Z,100875.89
2022-07-28T09:02:53.125Z,100872.86
2022-07-28T09:05:27.303Z,100869.95
2022-07-28T09:07:57.084Z,100869.48
2022-07-28T09:10:26.557Z,100863.05
2022-07-28T09:12:58.215Z,100865.31
2022-07-28T09:15:27.820Z,100865.66
2022-07-28T09:17:57.091Z,100865.25
2022-07-28T09:20:29.686Z,100867.69
2022-07-28T09:23:41.721Z,100868.15
2022-07-28T09:26:12.356Z,100864.64
2022-07-28T09:28:55.212Z,100859.28
2022-07-28T09:31:28.265Z,100859.85
2022-07-28T09:34:05.827Z,100856.05
2022-07-28T09:36:40.545Z,100855.30
2022-07-28T09:39:10.140Z,100853.89
2022-07-28T09:41:56.065Z,100859.24
2022-07-28T09:44:27.581Z,100854.02
2022-07-28T09:46:57.351Z,100851.92
2022-07-28T09:49:44.403Z,100848.45
2022-07-28T09:52:14.114Z,100845.56
2022-07-28T09:55:09.210Z,100836.01
2022-07-28T09:57:40.390Z,100836.02
2022-07-28T10:00:25.693Z,100836.24
2022-07-28T10:02:57.081Z,100837.67
2022-07-28T10:05:40.730Z,100835.90
2022-07-28T10:08:09.755Z,100835.77
2022-07-28T10:10:39.762Z,100837.05
2022-07-28T10:13:08.979Z,100836.98
2022-07-28T10:15:56.596Z,100834.30
2022-07-28T10:18:25.822Z,100834.63
2022-07-28T10:20:55.919Z,100832.98
2022-07-28T10:23:27.769Z,100836.19
2022-07-28T10:26:01.082Z,100831.24
2022-07-28T10:28:37.177Z,100827.02
2022-07-28T10:31:15.372Z,100826.95
2022-07-28T10:33:51.153Z,100824.88
2022-07-28T10:36:25.945Z,100827.17
2022-07-28T10:39:05.501Z,100825.56
2022-07-28T10:41:43.387Z,100825.70
2022-07-28T10:44:19.351Z,100824.36
2022-07-28T10:46:50.307Z,100818.36
2022-07-28T10:49:20.944Z,100814.52
2022-07-28T10:52:06.263Z,100812.47
2022-07-28T10:55:03.649Z,100810.31
2022-07-28T10:57:34.740Z,100806.08
2022-07-28T11:00:25.883Z,100810.92
2022-07-28T11:03:13.974Z,100812.94
2022-07-28T11:05:44.461Z,100813.05
2022-07-28T11:08:17.194Z,100809.61
2022-07-28T11:11:00.868Z,100803.70
2022-07-28T11:13:41.201Z,100798.95
2022-07-28T11:16:13.324Z,100797.52
2022-07-28T11:19:07.928Z,100800.95
2022-07-28T11:22:18.425Z,100801.06
2022-07-28T11:25:20.764Z,100797.91
2022-07-28T11:28:01.339Z,100792.73
2022-07-28T11:30:33.819Z,100792.48
2022-07-28T11:33:09.571Z,100788.21
2022-07-28T11:36:04.852Z,100787.30
2022-07-28T11:38:35.471Z,100786.53
2022-07-28T11:41:30.612Z,100786.73
2022-07-28T11:44:19.868Z,100784.40
2022-07-28T11:47:20.505Z,100787.62
2022-07-28T11:50:17.400Z,100786.13
2022-07-28T11:52:57.334Z,100789.96
2022-07-28T11:55:55.930Z,100790.13
2022-07-28T11:58:27.757Z,100786.06
2022-07-28T12:01:20.350Z,100785.26
2022-07-28T12:03:55.487Z,100784.78
2022-07-28T12:06:40.890Z,100782.08
2022-07-28T12:09:13.597Z,100776.53
2022-07-28T12:11:42.820Z,100777.25
2022-07-28T12:14:17.717Z,100777.48
2022-07-28T12:16:51.689Z,100779.20
2022-07-28T12:19:21.510Z,100776.70
2022-07-28T12:21:53.110Z,100773.77
2022-07-28T12:24:29.445Z,100771.73
2022-07-28T12:27:04.098Z,100774.23
2022-07-28T12:30:00.364Z,100770.27
2022-07-28T12:32:36.609Z,100767.19
2022-07-28T12:35:06.511Z,100763.05
2022-07-28T12:37:37.853Z,100764.47
2022-07-28T12:40:10.850Z,100762.31
2022-07-28T12:42:42.552Z,100761.89
2022-07-28T12:45:13.020Z,100764.79
2022-07-28T12:47:41.964Z,100764.81
2022-07-28T12:50:20.009Z,100762.72
2022-07-28T12:53:08.408Z,100757.08
2022-07-28T12:55:39.733Z,100752.04
2022-07-28T12:58:23.756Z,100751.32
2022-07-28T13:00:53.967Z,100744.83
2022-07-28T13:03:28.557Z,100742.53
2022-07-28T13:06:04.000Z,100746.20
2022-07-28T13:08:47.850Z,100749.34
2022-07-28T13:11:42.459Z,100748.09
2022-07-28T13:14:09.162Z,100739.89
2022-07-28T13:16:38.246Z,100737.84
2022-07-28T13:19:07.648Z,100733.50
2022-07-28T13:21:56.605Z,100734.06
2022-07-28T13:24:29.286Z,100738.04
2022-07-28T13:27:01.586Z,100737.20
2022-07-28T13:29:35.665Z,100736.82
2022-07-28T13:32:05.023Z,100737.05
2022-07-28T13:34:34.260Z,100741.50
2022-07-28T13:37:03.203Z,100737.83
2022-07-28T13:39:32.063Z,100735.40
2022-07-28T13:42:05.414Z,100734.71
2022-07-28T13:44:38.058Z,100731.58
2022-07-28T13:47:07.392Z,100734.37
2022-07-28T13:49:40.091Z,100735.45
2022-07-28T13:52:12.938Z,100736.22
2022-07-28T13:54:42.299Z,100731.05
2022-07-28T13:57:14.648Z,100727.30
2022-07-28T13:59:44.247Z,100724.41
2022-07-28T14:02:15.090Z,100724.11
2022-07-28T14:04:50.187Z,100724.73
2022-07-28T14:07:22.778Z,100721.71
2022-07-28T14:09:53.559Z,100720.29
2022-07-28T14:12:23.172Z,100720.12
2022-07-28T14:14:53.972Z,100721.27
2022-07-28T14:20:15.862Z,100717.06
2022-07-28T14:22:46.577Z,100718.23
2022-07-28T14:25:19.394Z,100714.90
2022-07-28T14:27:52.781Z,100719.33
2022-07-28T14:30:28.476Z,100716.70
2022-07-28T14:33:11.591Z,100716.02
2022-07-28T14:35:40.810Z,100713.73
2022-07-28T14:40:59.646Z,100715.42
2022-07-28T14:43:28.708Z,100714.16
2022-07-28T14:46:14.854Z,100712.38
2022-07-28T14:48:50.958Z,100709.04
2022-07-28T14:51:19.940Z,100708.64
2022-07-28T14:53:52.157Z,100708.98
2022-07-28T14:56:21.251Z,100711.17
2022-07-28T14:58:51.349Z,100709.66
2022-07-28T15:01:20.463Z,100708.14
2022-07-28T15:03:49.477Z,100704.37
2022-07-28T15:06:22.192Z,100702.89
2022-07-28T15:08:53.524Z,100703.27
2022-07-28T15:11:22.385Z,100701.57
2022-07-28T15:13:51.621Z,100699.98
2022-07-28T15:16:20.566Z,100705.14
2022-07-28T15:18:53.420Z,100703.11
2022-07-28T15:21:22.260Z,100698.98
2022-07-28T15:23:51.132Z,100698.55
2022-07-28T15:26:20.141Z,100697.33
2022-07-28T15:28:49.056Z,100695.27
2022-07-28T15:31:20.643Z,100696.33
2022-07-28T15:33:55.609Z,100699.85
2022-07-28T15:36:27.255Z,100695.42
2022-07-28T15:38:56.379Z,100691.71
2022-07-28T15:41:25.345Z,100688.48
2022-07-28T15:43:54.249Z,100688.04
2022-07-28T15:46:23.294Z,100688.47
2022-07-28T15:48:54.688Z,100687.64
2022-07-28T15:51:26.071Z,100691.53
2022-07-28T15:53:56.506Z,100692.02
2022-07-28T15:56:26.713Z,100685.50
2022-07-28T15:58:57.317Z,100688.87
2022-07-28T16:01:26.845Z,100692.94
2022-07-28T16:03:58.138Z,100689.02
2022-07-28T16:06:47.732Z,100686.36
2022-07-28T16:09:16.754Z,100683.48
2022-07-28T16:11:46.112Z,100679.77
2022-07-28T16:14:15.294Z,100681.58
2022-07-28T16:16:45.417Z,100678.41
2022-07-28T16:19:31.554Z,100679.23
2022-07-28T16:22:03.524Z,100682.18
2022-07-28T16:24:32.941Z,100683.42
2022-07-28T16:27:02.342Z,100684.90
2022-07-28T16:29:31.336Z,100684.28
2022-07-28T16:32:00.291Z,100681.86
2022-07-28T16:34:29.680Z,100680.86
2022-07-28T16:36:58.597Z,100677.08
2022-07-28T16:39:27.684Z,100675.48
2022-07-28T16:41:56.503Z,100677.96
2022-07-28T16:44:26.621Z,100678.50
2022-07-28T16:46:55.692Z,100680.62
2022-07-28T16:49:25.101Z,100683.16
2022-07-28T16:51:55.641Z,100686.27
2022-07-28T16:54:24.760Z,100683.30
2022-07-28T16:56:55.663Z,100681.78
2022-07-28T16:59:25.100Z,100683.15
2022-07-28T17:02:07.860Z,100685.31
2022-07-28T17:04:36.882Z,100683.95
2022-07-28T17:07:07.051Z,100684.10
2022-07-28T17:09:36.206Z,100682.88
2022-07-28T17:12:07.130Z,100679.88
2022-07-28T17:14:36.251Z,100681.50
2022-07-28T17:17:05.538Z,100685.35
2022-07-28T17:19:34.365Z,100686.02
2022-07-28T17:22:07.138Z,100686.09
2022-07-28T17:24:36.043Z,100686.55
2022-07-28T17:29:54.287Z,100682.19
2022-07-28T17:32:23.216Z,100682.66
2022-07-28T17:34:52.695Z,100680.40
2022-07-28T17:37:22.023Z,100680.89
2022-07-28T17:39:50.921Z,100680.56
2022-07-28T17:42:19.842Z,100683.27
2022-07-28T17:44:50.763Z,100681.57
2022-07-28T17:47:21.155Z,100683.97
2022-07-28T17:49:54.170Z,100682.27
2022-07-28T17:52:23.342Z,100682.85
2022-07-28T17:55:11.070Z,100687.14
2022-07-28T17:57:41.136Z,100687.81
2022-07-28T18:00:11.074Z,100689.96
2022-07-28T18:02:43.577Z,100694.05
2022-07-28T18:05:17.665Z,100693.42
2022-07-28T18:07:50.261Z,100700.57
2022-07-28T18:10:24.610Z,100697.85
2022-07-28T18:12:54.216Z,100695.06
2022-07-28T18:15:27.864Z,100697.60
2022-07-28T18:18:00.138Z,100699.60
2022-07-28T18:20:30.095Z,100698.41
2022-07-28T18:22:58.999Z,100702.19
2022-07-28T18:25:31.352Z,100697.48
2022-07-28T18:28:01.069Z,100698.98
2022-07-28T18:30:30.218Z,100697.48
2022-07-28T18:33:00.003Z,100696.24
2022-07-28T18:35:32.096Z,100701.19
2022-07-28T18:38:03.343Z,100703.27
2022-07-28T18:40:32.162Z,100703.42
2022-07-28T18:43:04.067Z,100706.90
2022-07-28T18:45:33.186Z,100709.05
2022-07-28T18:48:04.452Z,100711.02
2022-07-28T18:50:36.033Z,100708.95
2022-07-28T18:53:09.843Z,100711.90
2022-07-28T18:55:38.791Z,100710.10
2022-07-28T18:58:11.053Z,100714.48
2022-07-28T19:00:40.116Z,100713.44
2022-07-28T19:03:12.666Z,100715.98
2022-07-28T19:05:45.814Z,100719.00
2022-07-28T19:08:18.139Z,100727.20
2022-07-28T19:10:47.704Z,100726.33
2022-07-28T19:13:22.206Z,100729.80
2022-07-28T19:15:51.123Z,100732.07
2022-07-28T19:18:23.289Z,100731.84
2022-07-28T19:20:52.232Z,100732.31
2022-07-28T19:23:21.222Z,100735.86
2022-07-28T19:25:50.616Z,100735.34
2022-07-28T19:28:19.777Z,100738.08
2022-07-28T19:30:50.623Z,100738.38
2022-07-28T19:33:21.506Z,100739.80
2022-07-28T19:35:52.700Z,100736.69
2022-07-28T19:38:25.322Z,100729.96
2022-07-28T19:40:58.604Z,100729.66
2022-07-28T19:43:27.574Z,100732.55
2022-07-28T19:46:00.139Z,100736.51
2022-07-28T19:48:29.423Z,100737.80
2022-07-28T19:51:01.631Z,100737.11
2022-07-28T19:53:35.846Z,100738.64
2022-07-28T19:56:08.883Z,100738.83
2022-07-28T19:58:39.768Z,100737.61
2022-07-28T20:01:09.062Z,100740.83
2022-07-28T20:04:03.615Z,100743.29
2022-07-28T20:06:27.883Z,100741.20
2022-07-28T20:08:57.356Z,100744.71
2022-07-28T20:11:43.715Z,100749.02
2022-07-28T20:14:20.256Z,100748.70
2022-07-28T20:16:56.692Z,100748.17
2022-07-28T20:19:27.855Z,100749.99
2022-07-28T20:22:22.684Z,100750.92
2022-07-28T20:24:53.145Z,100755.01
2022-07-28T20:27:23.452Z,100756.04
2022-07-28T20:29:52.337Z,100757.82
2022-07-28T20:32:21.408Z,100760.47
2022-07-28T20:34:52.168Z,100762.82
2022-07-28T20:37:35.699Z,100767.23
2022-07-28T20:40:10.049Z,100763.61
2022-07-28T20:42:42.687Z,100765.95
2022-07-28T20:45:11.739Z,100767.42
2022-07-28T20:47:41.202Z,100768.77
2022-07-28T20:50:10.459Z,100763.95
2022-07-28T20:52:39.512Z,100766.83
2022-07-28T20:55:12.659Z,100773.41
2022-07-28T20:57:42.312Z,100776.33
2022-07-28T21:00:24.528Z,100777.81
2022-07-28T21:02:53.680Z,100777.68
2022-07-28T21:05:26.623Z,100783.46
2022-07-28T21:08:09.130Z,100781.95
2022-07-28T21:10:46.035Z,100778.35
2022-07-28T21:13:15.204Z,100779.70
2022-07-28T21:15:44.014Z,100780.84
2022-07-28T21:18:13.089Z,100780.45
2022-07-28T21:20:42.486Z,100783.00
2022-07-28T21:23:12.636Z,100786.95
2022-07-28T21:25:41.515Z,100790.11
2022-07-28T21:28:34.453Z,100788.74
2022-07-28T21:31:03.404Z,100793.19
2022-07-28T21:33:36.184Z,100798.89
2022-07-28T21:36:05.707Z,100803.27
2022-07-28T21:38:34.657Z,100801.19
2022-07-28T21:41:04.386Z,100802.14
2022-07-28T21:43:33.388Z,100803.06
2022-07-28T21:46:08.426Z,100803.74
2022-07-28T21:48:37.682Z,100806.52
2022-07-28T21:51:18.154Z,100811.74
2022-07-28T21:53:56.948Z,100814.37
2022-07-28T21:56:34.652Z,100810.21
2022-07-28T21:59:04.571Z,100810.96
2022-07-28T22:01:33.817Z,100813.94
2022-07-28T22:04:03.789Z,100816.86
2022-07-28T22:06:36.894Z,100817.23
2022-07-28T22:09:15.465Z,100815.59
2022-07-28T22:11:45.445Z,100816.55
2022-07-28T22:14:21.314Z,100817.52
2022-07-28T22:16:52.676Z,100818.63
2022-07-28T22:19:21.708Z,100816.45
2022-07-28T22:21:51.704Z,100821.93
2022-07-28T22:24:23.757Z,100822.80
2022-07-28T22:26:52.733Z,100823.46
2022-07-28T22:29:21.781Z,100821.73
2022-07-28T22:31:54.734Z,100823.13
2022-07-28T22:34:26.837Z,100820.46
2022-07-28T22:36:56.502Z,100818.60
2022-07-28T22:39:25.564Z,100820.29
2022-07-28T22:41:54.632Z,100821.07
2022-07-28T22:44:24.629Z,100817.20
2022-07-28T22:46:57.489Z,100816.42
2022-07-28T22:49:26.955Z,100822.83
2022-07-28T22:51:55.908Z,100821.71
2022-07-28T22:54:24.708Z,100820.96
2022-07-28T22:56:53.436Z,100825.96
2022-07-28T22:59:23.367Z,100828.91
2022-07-28T23:01:55.208Z,100830.30
2022-07-28T23:04:25.652Z,100830.63
2022-07-28T23:07:13.515Z,100834.84
2022-07-28T23:09:50.063Z,100834.41
2022-07-28T23:12:23.024Z,100831.55
2022-07-28T23:14:51.885Z,100832.10
2022-07-28T23:17:22.206Z,100834.03
2022-07-28T23:19:53.280Z,100835.52
2022-07-28T23:22:25.033Z,100835.65
2022-07-28T23:24:54.908Z,100834.08
2022-07-28T23:27:24.185Z,100834.22
2022-07-28T23:29:55.213Z,100835.07
2022-07-28T23:32:24.166Z,100839.02
2022-07-28T23:34:59.464Z,100838.53
2022-07-28T23:37:28.983Z,100835.77
2022-07-28T23:39:59.172Z,100838.46
2022-07-28T23:42:28.048Z,100840.46
2022-07-28T23:44:58.273Z,100843.45
2022-07-28T23:47:27.283Z,100845.84
2022-07-28T23:49:56.176Z,100847.97
2022-07-28T23:52:25.047Z,100850.61
2022-07-28T23:54:56.859Z,100844.19
2022-07-28T23:57:31.369Z,100839.36
